createdAt,value
2022-12-17T00:02:22.700Z,2.13
2022-12-17T00:05:08.257Z,2.09
2022-12-17T00:07:53.503Z,2.08
2022-12-17T00:10:40.361Z,2.10
2022-12-17T00:13:37.017Z,2.13
2022-12-17T00:16:22.798Z,2.17
2022-12-17T00:19:08.263Z,2.20
2022-12-17T00:21:53.764Z,2.23
2022-12-17T00:24:41.810Z,2.27
2022-12-17T00:27:27.314Z,2.24
2022-12-17T00:30:12.972Z,2.18
2022-12-17T00:32:58.647Z,2.13
2022-12-17T00:35:44.098Z,2.09
2022-12-17T00:38:36.519Z,2.10
2022-12-17T00:41:21.759Z,2.12
2022-12-17T00:44:07.194Z,2.14
2022-12-17T00:46:52.629Z,2.17
2022-12-17T00:49:38.013Z,2.19
2022-12-17T00:52:23.458Z,2.19
2022-12-17T00:55:08.929Z,2.15
2022-12-17T00:57:54.251Z,2.09
2022-12-17T01:00:43.434Z,2.08
2022-12-17T01:03:29.884Z,2.11
2022-12-17T01:06:15.346Z,2.13
2022-12-17T01:09:00.756Z,2.12
2022-12-17T01:11:46.105Z,2.14
2022-12-17T01:14:31.487Z,2.14
2022-12-17T01:17:17.175Z,2.15
2022-12-17T01:20:02.495Z,2.13
2022-12-17T01:22:47.891Z,2.09
2022-12-17T01:25:33.135Z,2.07
2022-12-17T01:28:18.453Z,2.06
2022-12-17T01:31:06.918Z,2.06
2022-12-17T01:33:52.234Z,2.05
2022-12-17T01:36:37.869Z,2.03
2022-12-17T01:39:23.356Z,2.03
2022-12-17T01:42:08.662Z,2.06
2022-12-17T01:45:04.382Z,2.10
2022-12-17T01:47:56.795Z,2.13
2022-12-17T01:50:43.724Z,2.15
2022-12-17T01:53:29.368Z,2.14
2022-12-17T01:56:15.568Z,2.16
2022-12-17T01:59:01.046Z,2.20
2022-12-17T02:01:46.545Z,2.20
2022-12-17T02:04:32.310Z,2.22
2022-12-17T02:07:27.856Z,2.22
2022-12-17T02:10:47.162Z,2.16
2022-12-17T02:13:35.005Z,2.11
2022-12-17T02:16:26.822Z,2.10
2022-12-17T02:19:16.572Z,2.07
2022-12-17T02:22:02.141Z,2.06
2022-12-17T02:24:51.549Z,2.07
2022-12-17T06:49:45.073Z,0.67
2022-12-17T06:52:30.435Z,0.73
2022-12-17T06:55:15.791Z,0.86
2022-12-17T06:58:01.290Z,1.02
2022-12-17T07:00:46.880Z,1.17
2022-12-17T07:03:32.209Z,1.31
2022-12-17T07:06:20.783Z,1.44
2022-12-17T07:09:20.780Z,1.56
2022-12-17T07:12:06.168Z,1.70
2022-12-17T07:14:51.475Z,1.82
2022-12-17T07:17:37.749Z,1.92
2022-12-17T07:20:23.736Z,2.03
2022-12-17T07:23:13.762Z,2.12
2022-12-17T07:25:59.700Z,2.21
2022-12-17T07:28:44.975Z,2.28
2022-12-17T07:31:30.522Z,2.34
2022-12-17T07:34:15.784Z,2.38
2022-12-17T07:37:01.117Z,2.39
2022-12-17T07:39:46.489Z,2.41
2022-12-17T07:42:31.917Z,2.47
2022-12-17T07:45:17.416Z,2.53
2022-12-17T07:48:10.343Z,2.56
2022-12-17T07:50:55.359Z,2.59
2022-12-17T07:53:40.823Z,2.62
2022-12-17T07:56:26.165Z,2.68
2022-12-17T07:59:11.566Z,2.71
2022-12-17T08:01:57.028Z,2.74
2022-12-17T08:04:42.391Z,2.78
2022-12-17T08:07:27.748Z,2.82
2022-12-17T08:10:13.076Z,2.80
2022-12-17T08:12:58.393Z,2.77
2022-12-17T08:15:43.763Z,2.74
2022-12-17T08:18:29.169Z,2.67
2022-12-17T08:21:14.718Z,2.64
2022-12-17T08:24:00.112Z,2.66
2022-12-17T08:26:48.203Z,2.69
2022-12-17T08:29:34.007Z,2.68
2022-12-17T08:32:19.275Z,2.68
2022-12-17T08:35:04.704Z,2.66
2022-12-17T08:37:50.035Z,2.67
2022-12-17T08:40:35.511Z,2.69
2022-12-17T08:43:20.824Z,2.74
2022-12-17T08:46:09.203Z,2.79
2022-12-17T08:48:54.547Z,2.80
2022-12-17T08:51:40.438Z,2.80
2022-12-17T08:54:25.931Z,2.83
2022-12-17T08:57:11.073Z,2.85
2022-12-17T08:59:56.509Z,2.84
2022-12-17T09:02:42.102Z,2.77
2022-12-17T09:05:27.510Z,2.74
2022-12-17T09:08:21.474Z,2.78
2022-12-17T09:11:06.814Z,2.80
2022-12-17T09:13:52.133Z,2.80
2022-12-17T09:16:37.976Z,2.85
2022-12-17T09:19:23.885Z,2.91
2022-12-17T09:22:09.248Z,2.97
2022-12-17T09:24:54.562Z,2.98
2022-12-17T09:27:40.022Z,2.96
2022-12-17T09:30:25.970Z,2.96
2022-12-17T09:33:11.192Z,2.96
2022-12-17T09:35:57.534Z,2.88
2022-12-17T09:38:42.984Z,2.79
2022-12-17T09:41:45.004Z,2.73
2022-12-17T09:44:40.643Z,2.73
2022-12-17T09:47:30.190Z,2.77
2022-12-17T09:50:15.801Z,2.85
2022-12-17T09:53:01.108Z,2.94
2022-12-17T09:56:00.300Z,3.01
2022-12-17T09:58:46.167Z,3.10
2022-12-17T10:01:39.187Z,3.19
2022-12-17T10:04:29.278Z,3.28
2022-12-17T10:07:14.866Z,3.34
2022-12-17T10:10:00.197Z,3.40
2022-12-17T10:12:45.749Z,3.47
2022-12-17T10:15:34.174Z,3.53
2022-12-17T10:18:26.775Z,3.51
2022-12-17T10:21:23.278Z,3.45
2022-12-17T10:24:08.575Z,3.44
2022-12-17T10:26:54.442Z,3.48
2022-12-17T10:29:48.264Z,3.53
2022-12-17T10:32:33.851Z,3.54
2022-12-17T10:35:39.957Z,3.53
2022-12-17T10:38:32.396Z,3.48
2022-12-17T10:41:21.446Z,3.42
2022-12-17T10:44:06.733Z,3.36
2022-12-17T10:46:52.837Z,3.33
2022-12-17T10:49:42.472Z,3.32
2022-12-17T10:52:46.732Z,3.33
2022-12-17T10:55:45.837Z,3.33
2022-12-17T10:58:42.066Z,3.37
2022-12-17T11:01:51.435Z,3.44
2022-12-17T11:04:49.733Z,3.50
2022-12-17T11:07:56.352Z,3.54
2022-12-17T11:10:42.668Z,3.59
2022-12-17T11:13:30.928Z,3.64
2022-12-17T11:16:17.285Z,3.69
2022-12-17T14:34:08.856Z,1.51
2022-12-17T14:36:36.692Z,1.52
2022-12-17T14:39:11.148Z,1.57
2022-12-17T14:41:57.144Z,1.65
2022-12-17T14:44:28.274Z,1.74
2022-12-17T14:47:10.146Z,1.81
2022-12-17T14:49:37.658Z,1.84
2022-12-17T14:52:13.996Z,1.88
2022-12-17T14:54:45.551Z,1.97
2022-12-17T14:57:21.942Z,2.05
2022-12-17T14:59:48.705Z,2.12
2022-12-17T15:02:18.845Z,2.19
2022-12-17T15:04:45.562Z,2.26
2022-12-17T15:07:18.244Z,2.31
2022-12-17T15:09:45.075Z,2.39
2022-12-17T15:12:11.701Z,2.46
2022-12-17T15:14:38.312Z,2.51
2022-12-17T15:17:05.988Z,2.56
2022-12-17T15:19:32.996Z,2.61
2022-12-17T15:21:59.631Z,2.65
2022-12-17T15:24:27.127Z,2.68
2022-12-17T15:26:54.736Z,2.72
2022-12-17T15:29:21.368Z,2.76
2022-12-17T15:31:48.126Z,2.76
2022-12-17T15:34:14.856Z,2.75
2022-12-17T15:36:41.544Z,2.77
2022-12-17T15:39:09.453Z,2.79
2022-12-17T15:41:55.116Z,2.79
2022-12-17T15:44:21.745Z,2.80
2022-12-17T15:46:48.377Z,2.82
2022-12-17T15:49:15.018Z,2.83
2022-12-17T15:51:41.652Z,2.84
2022-12-17T15:54:08.264Z,2.84
2022-12-17T15:56:37.120Z,2.83
2022-12-17T15:59:03.839Z,2.83
2022-12-17T16:01:30.570Z,2.82
2022-12-17T16:03:57.842Z,2.80
2022-12-17T16:06:24.477Z,2.77
2022-12-17T16:08:51.113Z,2.75
2022-12-17T16:11:17.817Z,2.75
2022-12-17T16:13:44.865Z,2.72
2022-12-17T16:16:11.524Z,2.68
2022-12-17T16:18:38.967Z,2.65
2022-12-17T16:21:06.651Z,2.61
2022-12-17T16:23:33.400Z,2.58
2022-12-17T16:26:01.537Z,2.57
2022-12-17T16:28:28.438Z,2.56
2022-12-17T16:30:59.653Z,2.56
2022-12-17T16:33:31.086Z,2.56
2022-12-17T16:36:00.877Z,2.57
2022-12-17T16:38:27.549Z,2.57
2022-12-17T16:40:56.586Z,2.56
2022-12-17T16:43:24.252Z,2.55
2022-12-17T16:45:51.786Z,2.54
2022-12-17T16:48:20.727Z,2.53
2022-12-17T16:50:50.211Z,2.50
2022-12-17T16:53:17.321Z,2.49
2022-12-17T16:55:48.568Z,2.49
2022-12-17T16:58:16.084Z,2.49
2022-12-17T17:00:42.831Z,2.48
2022-12-17T17:03:09.902Z,2.47
2022-12-17T17:05:38.599Z,2.46
2022-12-17T17:08:05.663Z,2.46
2022-12-17T17:10:34.795Z,2.46
2022-12-17T17:13:01.432Z,2.44
2022-12-17T17:15:28.074Z,2.43
2022-12-17T17:18:01.650Z,2.42
2022-12-17T17:20:32.266Z,2.40
2022-12-17T17:22:59.731Z,2.34
2022-12-17T17:25:38.787Z,2.32
2022-12-17T17:28:13.272Z,2.29
2022-12-17T17:30:39.888Z,2.27
2022-12-17T17:33:06.528Z,2.27
2022-12-17T17:35:33.342Z,2.27
2022-12-17T17:38:00.043Z,2.27
2022-12-17T17:40:26.803Z,2.26
2022-12-17T17:42:53.476Z,2.25
2022-12-17T17:45:20.161Z,2.22
2022-12-17T17:47:46.779Z,2.17
2022-12-17T17:50:13.438Z,2.15
2022-12-17T17:52:40.058Z,2.14
2022-12-17T17:55:07.376Z,2.14
2022-12-17T17:57:34.032Z,2.12
2022-12-17T18:00:00.677Z,2.10
2022-12-17T18:02:27.562Z,2.09
2022-12-17T18:04:54.392Z,2.08
2022-12-17T18:07:25.580Z,2.06
2022-12-17T18:09:53.051Z,2.08
2022-12-17T18:12:39.771Z,2.09
2022-12-17T18:15:15.887Z,2.07
2022-12-17T18:17:45.325Z,2.07
2022-12-17T18:20:13.820Z,2.06
2022-12-17T18:22:40.500Z,2.04
2022-12-17T18:25:07.423Z,2.03
2022-12-17T18:27:34.024Z,2.02
2022-12-17T18:30:00.768Z,2.04
2022-12-17T18:32:27.456Z,2.04
2022-12-17T18:34:54.290Z,2.05
2022-12-17T18:37:20.980Z,2.05
2022-12-17T21:37:59.395Z,-0.10
2022-12-17T21:40:26.080Z,-0.11
2022-12-17T21:43:01.840Z,-0.06
2022-12-17T21:45:34.255Z,0.00
2022-12-17T21:48:01.146Z,0.08
2022-12-17T21:50:27.769Z,0.15
2022-12-17T21:52:54.424Z,0.24
2022-12-17T21:55:21.114Z,0.31
2022-12-17T21:57:47.785Z,0.34
2022-12-17T22:00:15.260Z,0.38
2022-12-17T22:02:42.062Z,0.38
2022-12-17T22:05:10.728Z,0.39
2022-12-17T22:07:43.197Z,0.41
2022-12-17T22:10:23.317Z,0.42
2022-12-17T22:13:21.723Z,0.46
2022-12-17T22:15:48.736Z,0.49
2022-12-17T22:18:15.405Z,0.51
2022-12-17T22:20:42.035Z,0.53
2022-12-17T22:23:08.676Z,0.53
2022-12-17T22:25:37.772Z,0.54
2022-12-17T22:28:04.675Z,0.50
2022-12-17T22:30:49.991Z,0.46
2022-12-17T22:33:47.965Z,0.43
2022-12-17T22:38:31.711Z,0.39
2022-12-17T22:44:31.510Z,0.37
